createdAt,value
2022-12-03T00:00:38.676Z,69.99
2022-12-03T00:03:05.532Z,70.14
2022-12-03T00:05:32.625Z,69.94
2022-12-03T00:07:59.585Z,70.18
2022-12-03T00:10:26.426Z,70.20
2022-12-03T00:12:53.171Z,69.97
2022-12-03T00:15:20.023Z,69.90
2022-12-03T00:17:46.893Z,70.05
2022-12-03T00:20:22.843Z,70.04
2022-12-03T00:22:50.369Z,70.18
2022-12-03T00:25:17.570Z,70.06
2022-12-03T00:27:44.443Z,69.99
2022-12-03T00:30:13.995Z,70.17
2022-12-03T00:32:41.891Z,69.95
2022-12-03T00:35:09.117Z,70.13
2022-12-03T00:37:36.125Z,69.95
2022-12-03T00:40:06.768Z,69.96
2022-12-03T00:42:33.586Z,69.98
2022-12-03T00:45:00.442Z,69.83
2022-12-03T00:47:27.227Z,70.16
2022-12-03T00:49:54.049Z,69.86
2022-12-03T00:52:20.996Z,69.95
2022-12-03T00:54:49.183Z,69.82
2022-12-03T00:57:16.193Z,69.94
2022-12-03T00:59:42.952Z,70.12
2022-12-03T01:02:09.740Z,70.25
2022-12-03T01:04:36.679Z,70.04
2022-12-03T01:07:03.701Z,70.21
2022-12-03T01:09:31.551Z,70.12
2022-12-03T01:11:58.346Z,69.94
2022-12-03T01:14:25.136Z,70.05
2022-12-03T01:16:51.994Z,70.09
2022-12-03T01:19:19.582Z,70.15
2022-12-03T01:21:51.465Z,70.05
2022-12-03T01:24:19.324Z,70.35
2022-12-03T01:26:46.416Z,70.17
2022-12-03T01:29:13.573Z,70.28
2022-12-03T01:31:59.256Z,70.02
2022-12-03T01:34:26.128Z,69.95
2022-12-03T01:36:52.947Z,70.03
2022-12-03T01:39:20.183Z,70.08
2022-12-03T01:41:49.353Z,69.91
2022-12-03T01:44:21.565Z,69.85
2022-12-03T01:46:50.930Z,69.93
2022-12-03T01:49:22.303Z,70.00
2022-12-03T01:51:51.834Z,69.89
2022-12-03T01:54:22.287Z,69.90
2022-12-03T01:56:49.520Z,69.97
2022-12-03T01:59:20.130Z,69.98
2022-12-03T02:01:46.966Z,69.93
2022-12-03T02:04:16.131Z,69.86
2022-12-03T02:06:44.637Z,69.98
2022-12-03T02:09:13.036Z,69.96
2022-12-03T02:11:47.376Z,70.11
2022-12-03T02:14:20.118Z,70.16
2022-12-03T02:16:47.061Z,70.09
2022-12-03T02:19:24.460Z,70.18
2022-12-03T02:21:58.993Z,70.08
2022-12-03T02:24:52.823Z,69.90
2022-12-03T02:27:20.004Z,69.80
2022-12-03T02:29:47.189Z,70.13
2022-12-03T02:32:14.011Z,70.00
2022-12-03T02:34:42.338Z,70.21
2022-12-03T02:37:13.611Z,70.08
2022-12-03T02:39:47.346Z,70.15
2022-12-03T02:42:32.672Z,69.88
2022-12-03T02:45:05.291Z,69.90
2022-12-03T02:47:35.430Z,69.63
2022-12-03T02:50:03.135Z,69.93
2022-12-03T02:52:30.323Z,69.80
2022-12-03T02:54:57.375Z,69.88
2022-12-03T02:57:24.212Z,69.89
2022-12-03T02:59:51.283Z,70.00
2022-12-03T03:02:18.619Z,70.10
2022-12-03T03:04:45.564Z,69.87
2022-12-03T03:07:12.873Z,70.03
2022-12-03T03:09:39.883Z,70.00
2022-12-03T03:12:06.779Z,69.85
2022-12-03T03:14:33.838Z,69.92
2022-12-03T03:17:00.804Z,69.89
2022-12-03T03:19:28.794Z,69.99
2022-12-03T03:21:55.762Z,70.04
2022-12-03T03:24:23.346Z,70.01
2022-12-03T03:26:50.528Z,69.75
2022-12-03T03:29:17.545Z,69.96
2022-12-03T03:31:46.219Z,69.95
2022-12-03T03:34:14.104Z,69.77
2022-12-03T03:36:41.376Z,69.82
2022-12-03T03:39:09.629Z,70.06
2022-12-03T03:41:36.908Z,69.85
2022-12-03T03:44:06.530Z,69.95
2022-12-03T03:46:35.180Z,70.03
2022-12-03T03:49:03.965Z,70.07
2022-12-03T03:51:31.684Z,69.99
2022-12-03T03:53:58.744Z,70.00
2022-12-03T03:56:25.774Z,69.89
2022-12-03T03:58:52.812Z,69.75
2022-12-03T04:01:20.695Z,69.81
2022-12-03T04:03:47.672Z,70.02
2022-12-03T04:06:14.528Z,70.16
2022-12-03T04:08:41.381Z,69.96
2022-12-03T04:11:26.590Z,70.01
2022-12-03T04:13:53.390Z,69.91
2022-12-03T04:16:20.249Z,69.89
2022-12-03T04:18:47.276Z,70.10
2022-12-03T04:21:55.488Z,69.94
2022-12-03T04:24:23.944Z,70.01
2022-12-03T04:27:09.269Z,69.99
2022-12-03T04:29:36.801Z,69.95
2022-12-03T04:32:22.331Z,70.01
2022-12-03T04:35:07.997Z,69.81
2022-12-03T04:37:34.835Z,69.81
2022-12-03T04:40:01.678Z,69.75
2022-12-03T04:42:28.454Z,69.77
2022-12-03T04:44:58.477Z,69.77
2022-12-03T04:47:25.276Z,69.95
2022-12-03T04:49:52.221Z,69.79
2022-12-03T04:52:21.010Z,69.84
2022-12-03T04:54:47.994Z,69.83
2022-12-03T04:57:14.828Z,69.89
2022-12-03T04:59:41.645Z,69.93
2022-12-03T05:02:10.987Z,69.94
2022-12-03T05:04:37.945Z,69.84
2022-12-03T05:07:05.658Z,70.01
2022-12-03T05:09:35.030Z,69.79
2022-12-03T05:12:02.413Z,69.86
2022-12-03T05:14:31.016Z,69.93
2022-12-03T05:16:57.971Z,69.81
2022-12-03T05:19:48.718Z,69.96
2022-12-03T05:22:15.830Z,69.83
2022-12-03T05:24:45.663Z,70.07
2022-12-03T05:27:16.613Z,69.95
2022-12-03T05:29:45.999Z,69.94
2022-12-03T05:32:16.853Z,70.14
2022-12-03T05:34:44.155Z,70.03
2022-12-03T05:37:13.655Z,70.03
2022-12-03T05:39:43.320Z,69.88
2022-12-03T05:42:30.689Z,69.83
2022-12-03T05:44:58.717Z,70.10
2022-12-03T05:47:25.535Z,69.94
2022-12-03T05:49:52.807Z,69.97
2022-12-03T05:52:21.848Z,69.84
2022-12-03T05:54:50.484Z,69.92
2022-12-03T05:57:17.792Z,69.94
2022-12-03T05:59:45.399Z,70.18
2022-12-03T06:02:13.753Z,70.03
2022-12-03T06:04:40.688Z,70.15
2022-12-03T06:07:13.776Z,70.07
2022-12-03T06:09:47.331Z,70.10
2022-12-03T06:12:14.912Z,70.25
2022-12-03T06:14:46.559Z,70.05
2022-12-03T06:17:17.607Z,69.95
2022-12-03T06:19:45.687Z,70.00
2022-12-03T06:22:13.604Z,70.11
2022-12-03T06:24:43.045Z,69.94
2022-12-03T06:27:10.955Z,70.10
2022-12-03T06:29:38.744Z,70.16
2022-12-03T06:32:06.356Z,70.07
2022-12-03T06:34:33.479Z,69.94
2022-12-03T06:37:04.634Z,70.03
2022-12-03T06:39:32.344Z,70.03
2022-12-03T06:42:01.700Z,69.91
2022-12-03T06:44:28.850Z,69.80
2022-12-03T06:46:55.964Z,69.93
2022-12-03T06:49:28.160Z,69.77
2022-12-03T06:51:56.135Z,69.85
2022-12-03T06:54:23.590Z,69.85
2022-12-03T06:56:50.485Z,69.75
2022-12-03T06:59:17.519Z,69.74
2022-12-03T07:01:46.329Z,69.79
2022-12-03T07:04:16.399Z,69.72
2022-12-03T07:06:43.947Z,69.66
2022-12-03T07:09:12.330Z,69.75
2022-12-03T07:11:43.840Z,69.74
2022-12-03T07:14:12.056Z,69.78
2022-12-03T07:16:43.615Z,69.84
2022-12-03T07:19:12.128Z,69.80
2022-12-03T07:21:39.817Z,69.58
2022-12-03T07:24:07.520Z,69.75
2022-12-03T07:26:34.560Z,69.84
2022-12-03T07:29:02.059Z,69.88
2022-12-03T07:31:29.086Z,69.70
2022-12-03T07:33:56.112Z,69.64
2022-12-03T07:36:23.161Z,69.66
2022-12-03T07:38:51.662Z,69.77
2022-12-03T07:41:18.527Z,69.85
2022-12-03T07:43:46.965Z,69.74
2022-12-03T07:46:15.331Z,69.95
2022-12-03T07:48:49.564Z,69.97
2022-12-03T07:51:18.074Z,69.92
2022-12-03T07:53:46.537Z,69.87
2022-12-03T07:56:13.572Z,69.86
2022-12-03T07:58:43.375Z,69.79
2022-12-03T08:01:12.707Z,69.85
2022-12-03T08:03:40.855Z,69.83
2022-12-03T08:06:07.816Z,69.62
2022-12-03T08:08:34.741Z,69.90
2022-12-03T08:11:02.369Z,69.59
2022-12-03T08:13:29.298Z,69.85
2022-12-03T08:16:01.423Z,69.79
2022-12-03T08:18:28.818Z,69.73
2022-12-03T08:20:56.170Z,69.85
2022-12-03T08:23:26.077Z,69.82
2022-12-03T08:25:53.400Z,69.77
2022-12-03T08:28:23.815Z,69.94
2022-12-03T08:31:01.209Z,69.86
2022-12-03T08:33:37.073Z,69.82
2022-12-03T08:36:15.034Z,69.85
2022-12-03T08:38:48.218Z,69.91
2022-12-03T08:41:36.586Z,69.79
2022-12-03T08:44:32.627Z,69.72
2022-12-03T08:47:10.529Z,69.72
2022-12-03T08:49:37.807Z,69.46
2022-12-03T08:52:16.585Z,69.83
2022-12-03T08:54:45.462Z,69.86
2022-12-03T08:57:27.774Z,69.78
2022-12-03T09:00:01.320Z,69.77
2022-12-03T09:02:34.541Z,69.39
2022-12-03T09:05:21.059Z,69.72
2022-12-03T09:07:48.051Z,69.60
2022-12-03T09:10:17.453Z,69.69
2022-12-03T09:12:44.868Z,69.97
2022-12-03T09:15:11.866Z,69.67
2022-12-03T09:17:38.821Z,69.67
2022-12-03T09:20:06.848Z,69.71
2022-12-03T09:22:33.838Z,69.54
2022-12-03T09:25:00.812Z,69.85
2022-12-03T09:27:27.914Z,69.72
2022-12-03T09:29:54.841Z,69.62
2022-12-03T09:32:21.889Z,69.51
2022-12-03T09:34:49.172Z,69.71
2022-12-03T09:37:17.491Z,69.64
2022-12-03T09:39:45.554Z,69.74
2022-12-03T09:42:13.281Z,69.86
2022-12-03T09:44:40.566Z,69.83
2022-12-03T09:47:08.841Z,69.62
2022-12-03T09:49:37.918Z,69.64
2022-12-03T09:52:06.859Z,69.72
2022-12-03T09:54:34.616Z,69.65
2022-12-03T09:57:04.155Z,69.64
2022-12-03T09:59:33.467Z,69.79
2022-12-03T10:02:01.582Z,69.83
2022-12-03T10:04:29.479Z,69.71
2022-12-03T10:06:58.713Z,69.67
2022-12-03T10:09:30.595Z,69.80
2022-12-03T10:11:59.783Z,69.85
2022-12-03T10:14:29.371Z,69.80
2022-12-03T10:16:56.777Z,69.76
2022-12-03T10:19:27.776Z,69.78
2022-12-03T10:21:56.336Z,69.87
2022-12-03T10:24:35.154Z,69.78
2022-12-03T10:27:25.235Z,69.64
2022-12-03T10:29:58.580Z,69.71
2022-12-03T10:32:29.449Z,69.81
2022-12-03T10:35:41.269Z,69.92
2022-12-03T10:38:23.342Z,69.77
2022-12-03T10:40:51.121Z,69.95
2022-12-03T10:43:24.353Z,69.76
2022-12-03T10:46:04.811Z,69.96
2022-12-03T10:48:32.095Z,69.82
2022-12-03T10:51:05.207Z,69.91
2022-12-03T10:53:35.774Z,69.96
2022-12-03T10:56:05.897Z,69.88
2022-12-03T10:58:39.260Z,69.58
2022-12-03T11:01:15.314Z,69.96
2022-12-03T11:03:42.600Z,69.85
2022-12-03T11:06:16.776Z,69.91
2022-12-03T11:08:53.022Z,69.89
2022-12-03T11:11:29.251Z,69.69
2022-12-03T11:14:04.159Z,69.78
2022-12-03T11:16:40.099Z,69.79
2022-12-03T11:19:13.101Z,69.69
2022-12-03T11:22:05.185Z,69.64
2022-12-03T11:24:34.560Z,69.53
2022-12-03T11:27:07.588Z,69.57
2022-12-03T11:29:58.906Z,69.68
2022-12-03T11:32:45.975Z,69.46
2022-12-03T11:35:25.972Z,69.48
2022-12-03T11:37:54.224Z,69.64
2022-12-03T11:40:21.886Z,69.56
2022-12-03T11:42:49.342Z,69.57
2022-12-03T11:45:29.565Z,69.55
2022-12-03T11:48:13.954Z,69.21
2022-12-03T11:51:00.652Z,69.40
2022-12-03T11:53:31.893Z,69.52
2022-12-03T11:56:10.988Z,69.52
2022-12-03T11:58:43.479Z,69.55
2022-12-03T12:01:12.674Z,69.62
2022-12-03T12:03:49.512Z,69.56
2022-12-03T12:06:23.104Z,69.65
2022-12-03T12:08:51.161Z,69.58
2022-12-03T12:11:20.639Z,69.38
2022-12-03T12:14:03.989Z,69.47
2022-12-03T12:16:50.844Z,69.28
2022-12-03T12:19:36.202Z,69.19
2022-12-03T12:22:28.197Z,69.12
2022-12-03T12:25:04.073Z,69.48
2022-12-03T12:27:32.776Z,69.15
2022-12-03T12:30:16.055Z,69.12
2022-12-03T12:32:47.606Z,69.11
2022-12-03T12:35:18.671Z,69.22
2022-12-03T12:37:59.687Z,69.21
2022-12-03T12:40:30.651Z,69.24
2022-12-03T12:43:05.392Z,69.30
2022-12-03T12:45:37.083Z,69.04
2022-12-03T12:48:09.881Z,69.16
2022-12-03T12:50:38.861Z,69.13
2022-12-03T12:53:20.997Z,69.29
2022-12-03T12:56:01.612Z,69.25
2022-12-03T12:58:32.077Z,69.06
2022-12-03T13:01:04.147Z,69.35
2022-12-03T13:03:38.486Z,69.15
2022-12-03T13:06:05.942Z,68.92
2022-12-03T13:08:39.941Z,68.98
2022-12-03T13:11:19.271Z,68.91
2022-12-03T13:13:46.341Z,69.25
2022-12-03T13:16:28.256Z,69.01
2022-12-03T13:18:57.476Z,68.81
2022-12-03T13:21:31.260Z,68.90
2022-12-03T13:24:01.057Z,69.25
2022-12-03T13:26:41.494Z,69.33
2022-12-03T13:29:14.988Z,69.25
2022-12-03T13:31:52.510Z,69.19
2022-12-03T13:34:22.644Z,69.18
2022-12-03T13:36:57.950Z,69.38
2022-12-03T13:39:30.850Z,69.50
2022-12-03T13:42:34.252Z,69.21
2022-12-03T13:45:06.526Z,69.31
2022-12-03T13:47:34.239Z,69.22
2022-12-03T13:50:12.141Z,69.13
2022-12-03T13:52:39.393Z,69.26
2022-12-03T13:55:13.859Z,69.06
2022-12-03T13:57:40.702Z,69.20
2022-12-03T14:00:08.297Z,68.83
2022-12-03T14:02:40.396Z,69.23
2022-12-03T14:05:08.774Z,68.99
2022-12-03T14:07:35.704Z,68.98
2022-12-03T14:10:03.087Z,69.17
2022-12-03T14:12:34.033Z,69.05
2022-12-03T14:15:06.112Z,69.17
2022-12-03T14:17:34.283Z,68.99
2022-12-03T14:20:02.953Z,69.22
2022-12-03T14:22:30.750Z,69.31
2022-12-03T14:24:59.474Z,69.00
2022-12-03T14:27:27.678Z,68.94
2022-12-03T14:29:55.132Z,69.39
2022-12-03T14:32:23.183Z,69.34
2022-12-03T14:34:50.055Z,69.32
2022-12-03T14:37:18.342Z,69.07
2022-12-03T14:39:45.188Z,69.30
2022-12-03T14:42:15.331Z,69.12
2022-12-03T14:44:47.543Z,69.33
2022-12-03T14:47:17.219Z,69.37
2022-12-03T14:49:44.187Z,69.44
2022-12-03T14:52:12.634Z,69.46
2022-12-03T14:54:42.858Z,69.31
2022-12-03T14:57:12.820Z,69.20
2022-12-03T14:59:45.226Z,69.31
2022-12-03T15:02:12.828Z,69.43
2022-12-03T15:04:41.469Z,69.27
2022-12-03T15:07:09.179Z,69.45
2022-12-03T15:09:37.427Z,69.45
2022-12-03T15:12:05.195Z,69.42
2022-12-03T15:14:32.414Z,69.54
2022-12-03T15:17:00.385Z,69.52
2022-12-03T15:19:27.374Z,69.58
2022-12-03T15:21:54.317Z,69.64
2022-12-03T15:24:21.402Z,69.43
2022-12-03T15:26:49.778Z,69.55
2022-12-03T15:29:16.593Z,69.67
2022-12-03T15:31:44.733Z,69.48
2022-12-03T15:34:11.728Z,69.73
2022-12-03T15:36:39.148Z,69.59
2022-12-03T15:39:05.992Z,69.42
2022-12-03T15:41:32.912Z,69.57
2022-12-03T15:44:02.216Z,69.75
2022-12-03T15:46:29.760Z,69.46
2022-12-03T15:48:57.701Z,69.69
2022-12-03T15:51:25.010Z,69.90
2022-12-03T15:53:51.998Z,69.77
2022-12-03T15:56:18.937Z,69.62
2022-12-03T15:58:46.391Z,69.72
2022-12-03T16:01:14.112Z,69.86
2022-12-03T16:03:41.874Z,69.77
2022-12-03T16:06:24.205Z,69.50
2022-12-03T16:08:51.156Z,69.49
2022-12-03T16:11:19.113Z,69.79
2022-12-03T16:13:45.974Z,69.56
2022-12-03T16:16:12.910Z,69.57
2022-12-03T16:18:41.118Z,69.84
2022-12-03T16:21:08.017Z,69.82
2022-12-03T16:23:34.871Z,69.97
2022-12-03T16:26:01.810Z,69.87
2022-12-03T16:28:28.705Z,69.95
2022-12-03T16:30:55.662Z,70.04
2022-12-03T16:33:27.256Z,70.08
2022-12-03T16:35:54.960Z,69.97
2022-12-03T16:38:22.198Z,69.98
2022-12-03T16:40:49.131Z,70.00
2022-12-03T16:43:16.449Z,69.81
2022-12-03T16:45:46.200Z,69.77
2022-12-03T16:48:13.265Z,69.92
2022-12-03T16:50:40.180Z,70.07
2022-12-03T16:53:07.458Z,69.98
2022-12-03T16:55:34.469Z,70.14
2022-12-03T16:58:01.775Z,70.01
2022-12-03T17:00:29.005Z,69.80
2022-12-03T17:02:55.999Z,69.73
2022-12-03T17:05:22.975Z,69.77
2022-12-03T17:07:49.907Z,69.74
2022-12-03T17:10:16.937Z,69.81
2022-12-03T17:13:08.216Z,70.12
2022-12-03T17:15:31.455Z,69.77
2022-12-03T17:17:58.613Z,70.07
2022-12-03T17:20:25.740Z,70.24
2022-12-03T17:22:52.573Z,69.85
2022-12-03T17:25:19.603Z,69.94
2022-12-03T17:27:46.411Z,70.11
2022-12-03T17:30:14.310Z,70.02
2022-12-03T17:32:41.561Z,70.14
2022-12-03T17:35:09.229Z,70.18
2022-12-03T17:37:36.497Z,70.13
2022-12-03T17:40:08.234Z,70.22
2022-12-03T17:42:35.112Z,70.21
2022-12-03T17:45:02.329Z,70.10
2022-12-03T17:47:29.500Z,69.93
2022-12-03T17:49:56.529Z,70.15
2022-12-03T17:52:23.589Z,70.15
2022-12-03T17:55:09.672Z,70.13
2022-12-03T17:57:37.224Z,70.06
2022-12-03T18:00:04.885Z,70.14
2022-12-03T18:02:39.242Z,70.23
2022-12-03T18:05:06.399Z,70.13
2022-12-03T18:07:33.386Z,70.08
2022-12-03T18:10:00.275Z,70.15
2022-12-03T18:12:27.215Z,70.35
2022-12-03T18:14:54.043Z,70.31
2022-12-03T18:17:20.866Z,70.26
2022-12-03T18:19:47.868Z,70.29
2022-12-03T18:22:15.007Z,70.14
2022-12-03T18:24:43.311Z,70.17
2022-12-03T18:27:11.801Z,70.18
2022-12-03T18:29:38.705Z,70.11
2022-12-03T18:32:27.133Z,70.13
2022-12-03T18:34:54.275Z,70.06
2022-12-03T18:37:22.571Z,70.23
2022-12-03T18:39:49.404Z,70.00
2022-12-03T18:42:21.240Z,70.08
2022-12-03T18:44:50.091Z,70.18
2022-12-03T18:47:22.377Z,70.16
2022-12-03T18:49:49.220Z,70.14
2022-12-03T18:52:18.289Z,70.12
2022-12-03T18:54:45.303Z,69.86
2022-12-03T18:57:12.331Z,70.27
2022-12-03T18:59:39.610Z,70.23
2022-12-03T19:02:08.084Z,70.14
2022-12-03T19:04:34.960Z,70.25
2022-12-03T19:07:03.470Z,70.21
2022-12-03T19:09:30.650Z,70.38
2022-12-03T19:11:57.605Z,70.30
2022-12-03T19:14:24.390Z,70.24
2022-12-03T19:16:52.082Z,70.29
2022-12-03T19:19:22.379Z,70.21
2022-12-03T19:21:49.393Z,70.12
2022-12-03T19:24:28.515Z,70.23
2022-12-03T19:27:07.997Z,70.33
2022-12-03T19:29:44.971Z,70.17
2022-12-03T19:32:20.592Z,70.34
2022-12-03T19:35:02.224Z,70.34
2022-12-03T19:37:35.489Z,70.38
2022-12-03T19:40:07.550Z,70.41
2022-12-03T19:42:38.184Z,70.23
2022-12-03T19:45:11.729Z,70.10
2022-12-03T19:47:47.795Z,70.13
2022-12-03T19:50:22.628Z,70.01
2022-12-03T19:52:49.657Z,70.38
2022-12-03T19:55:19.631Z,70.23
2022-12-03T19:57:46.767Z,70.13
2022-12-03T20:00:14.306Z,70.37
2022-12-03T20:02:41.403Z,70.30
2022-12-03T20:05:08.826Z,70.46
2022-12-03T20:07:35.927Z,70.55
2022-12-03T20:10:03.810Z,70.37
2022-12-03T20:12:30.959Z,70.46
2022-12-03T20:14:57.748Z,70.35
2022-12-03T20:17:24.573Z,70.35
2022-12-03T20:19:51.681Z,70.33
2022-12-03T20:22:18.625Z,70.30
2022-12-03T20:24:45.414Z,70.19
2022-12-03T20:27:12.336Z,70.33
2022-12-03T20:29:39.618Z,70.25
2022-12-03T20:32:07.162Z,70.19
2022-12-03T20:34:37.140Z,70.29
2022-12-03T20:37:04.064Z,70.37
2022-12-03T20:39:31.956Z,70.26
2022-12-03T20:41:58.733Z,70.25
2022-12-03T20:44:25.698Z,70.33
2022-12-03T20:46:52.521Z,70.26
2022-12-03T20:49:19.347Z,70.40
2022-12-03T20:51:46.158Z,70.32
2022-12-03T20:54:12.915Z,70.52
2022-12-03T20:56:39.744Z,70.14
2022-12-03T20:59:10.416Z,70.36
2022-12-03T21:01:38.661Z,70.38
2022-12-03T21:04:07.394Z,70.24
2022-12-03T21:06:36.293Z,70.32
2022-12-03T21:09:06.600Z,70.21
2022-12-03T21:11:35.907Z,70.20
2022-12-03T21:14:04.301Z,70.30
2022-12-03T21:17:06.058Z,70.35
2022-12-03T21:19:22.416Z,70.17
2022-12-03T21:21:49.243Z,70.26
2022-12-03T21:24:16.086Z,70.28
2022-12-03T21:26:42.907Z,70.15
2022-12-03T21:29:09.784Z,70.28
2022-12-03T21:31:38.514Z,70.38
2022-12-03T21:34:05.601Z,70.39
2022-12-03T21:36:32.612Z,70.23
2022-12-03T21:38:59.608Z,70.21
2022-12-03T21:41:26.517Z,70.35
2022-12-03T21:43:53.550Z,70.24
2022-12-03T21:47:12.464Z,70.09
2022-12-03T21:49:07.325Z,70.30
2022-12-03T21:51:34.228Z,70.27
2022-12-03T21:54:01.238Z,70.31
2022-12-03T21:56:30.461Z,70.43
2022-12-03T21:58:57.402Z,70.13
2022-12-03T22:01:24.766Z,70.57
2022-12-03T22:03:52.555Z,70.54
2022-12-03T22:06:19.776Z,70.29
2022-12-03T22:08:46.650Z,70.35
2022-12-03T22:11:17.270Z,70.38
2022-12-03T22:13:44.674Z,70.55
2022-12-03T22:16:17.076Z,70.45
2022-12-03T22:18:44.198Z,70.41
2022-12-03T22:21:15.415Z,70.40
2022-12-03T22:23:42.558Z,70.06
2022-12-03T22:26:13.122Z,70.25
2022-12-03T22:28:43.740Z,70.31
2022-12-03T22:31:11.599Z,70.26
2022-12-03T22:33:39.204Z,70.23
2022-12-03T22:36:16.403Z,70.30
2022-12-03T22:38:47.740Z,70.44
2022-12-03T22:41:15.019Z,70.18
2022-12-03T22:43:42.985Z,70.37
2022-12-03T22:46:12.972Z,70.35
2022-12-03T22:48:41.868Z,70.37
2022-12-03T22:51:17.668Z,70.41
2022-12-03T22:53:44.536Z,70.16
2022-12-03T22:56:11.430Z,70.53
2022-12-03T22:58:39.792Z,70.53
2022-12-03T23:01:07.080Z,70.39
2022-12-03T23:03:34.040Z,70.35
2022-12-03T23:06:00.891Z,70.30
2022-12-03T23:08:27.647Z,70.53
2022-12-03T23:10:54.560Z,70.54
2022-12-03T23:13:21.335Z,70.40
2022-12-03T23:15:52.361Z,70.29
2022-12-03T23:18:20.216Z,70.35
2022-12-03T23:20:50.390Z,70.56
2022-12-03T23:23:18.505Z,70.45
2022-12-03T23:25:56.621Z,70.29
2022-12-03T23:28:23.600Z,70.29
2022-12-03T23:30:50.582Z,70.18
2022-12-03T23:33:17.573Z,70.43
2022-12-03T23:35:44.421Z,70.40
2022-12-03T23:38:11.446Z,70.45
2022-12-03T23:40:39.608Z,70.28
2022-12-03T23:43:09.088Z,70.48
2022-12-03T23:45:35.949Z,70.49
2022-12-03T23:48:03.040Z,70.32
2022-12-03T23:50:30.127Z,70.24
2022-12-03T23:52:57.008Z,70.59
2022-12-03T23:55:24.015Z,70.43
2022-12-03T23:57:50.790Z,70.33
